createdAt,value
2018-07-17T00:01:52.004Z,5.83
2018-07-17T00:04:20.805Z,5.17
2018-07-17T00:06:49.084Z,5.10
2018-07-17T00:09:17.277Z,5.60
2018-07-17T00:11:45.543Z,5.43
2018-07-17T00:14:13.689Z,6.20
2018-07-17T00:16:41.888Z,5.20
2018-07-17T00:19:10.247Z,6.37
2018-07-17T00:21:38.433Z,5.90
2018-07-17T00:24:06.839Z,5.43
2018-07-17T00:26:35.038Z,5.73
2018-07-17T00:29:03.339Z,5.63
2018-07-17T00:31:31.608Z,5.60
2018-07-17T00:33:59.759Z,5.50
2018-07-17T00:36:28.289Z,6.50
2018-07-17T00:38:56.671Z,6.77
2018-07-17T00:41:24.852Z,6.20
2018-07-17T00:43:53.055Z,6.10
2018-07-17T00:46:21.199Z,5.77
2018-07-17T00:48:49.480Z,6.20
2018-07-17T00:51:17.638Z,6.00
2018-07-17T00:53:45.919Z,6.77
2018-07-17T00:56:14.087Z,6.73
2018-07-17T00:58:42.600Z,6.30
2018-07-17T01:01:10.133Z,6.67
2018-07-17T01:03:43.964Z,6.40
2018-07-17T01:06:17.698Z,6.07
2018-07-17T01:08:51.808Z,7.03
2018-07-17T01:11:25.403Z,6.47
2018-07-17T01:13:58.500Z,6.70
2018-07-17T01:16:27.035Z,7.77
2018-07-17T01:18:55.238Z,6.63
2018-07-17T01:21:24.108Z,7.13
2018-07-17T01:23:52.252Z,6.80
2018-07-17T01:26:20.611Z,7.63
2018-07-17T01:28:48.916Z,7.20
2018-07-17T01:31:17.455Z,7.53
2018-07-17T01:33:45.699Z,8.03
2018-07-17T01:36:14.111Z,7.00
2018-07-17T01:38:42.556Z,8.00
2018-07-17T01:41:10.747Z,7.60
2018-07-17T01:43:38.924Z,8.10
2018-07-17T01:46:07.319Z,8.33
2018-07-17T01:48:35.519Z,8.00
2018-07-17T01:51:03.801Z,7.43
2018-07-17T01:53:32.010Z,8.40
2018-07-17T01:56:00.226Z,8.03
2018-07-17T01:58:28.667Z,8.57
2018-07-17T02:00:57.072Z,7.70
2018-07-17T02:03:25.245Z,7.70
2018-07-17T02:05:53.739Z,7.97
2018-07-17T02:08:21.950Z,8.37
2018-07-17T02:10:50.387Z,7.90
2018-07-17T02:13:18.548Z,7.90
2018-07-17T02:15:46.831Z,8.13
2018-07-17T02:18:15.221Z,7.50
2018-07-17T02:20:43.399Z,8.50
2018-07-17T02:23:11.564Z,7.97
2018-07-17T02:25:39.779Z,8.60
2018-07-17T02:28:07.915Z,7.27
2018-07-17T02:30:36.099Z,8.27
2018-07-17T02:33:04.261Z,7.37
2018-07-17T02:35:32.468Z,8.07
2018-07-17T02:38:00.616Z,7.50
2018-07-17T02:40:29.180Z,7.77
2018-07-17T02:42:57.879Z,8.20
2018-07-17T02:45:26.228Z,8.30
2018-07-17T02:47:54.564Z,8.33
2018-07-17T02:50:22.931Z,8.83
2018-07-17T02:52:51.078Z,8.40
2018-07-17T02:55:19.498Z,9.17
2018-07-17T02:57:48.164Z,8.33
2018-07-17T03:00:16.291Z,8.30
2018-07-17T03:02:44.516Z,8.50
2018-07-17T03:05:12.700Z,9.10
2018-07-17T03:07:40.860Z,8.23
2018-07-17T03:10:09.052Z,8.80
2018-07-17T03:12:37.619Z,7.80
2018-07-17T03:15:06.388Z,8.10
2018-07-17T03:17:34.600Z,8.90
2018-07-17T03:20:02.779Z,8.53
2018-07-17T03:22:31.344Z,7.77
2018-07-17T03:24:59.834Z,7.97
2018-07-17T03:27:28.016Z,8.40
2018-07-17T03:29:56.211Z,9.27
2018-07-17T03:32:24.371Z,8.17
2018-07-17T03:34:52.530Z,7.60
2018-07-17T03:37:20.932Z,7.83
2018-07-17T03:39:49.494Z,8.83
2018-07-17T03:42:17.707Z,8.70
2018-07-17T03:44:46.259Z,7.47
2018-07-17T03:47:14.652Z,8.83
2018-07-17T03:49:42.820Z,8.60
2018-07-17T03:52:11.008Z,8.33
2018-07-17T03:54:39.375Z,8.07
2018-07-17T03:57:07.560Z,8.67
2018-07-17T03:59:35.743Z,8.27
2018-07-17T04:02:04.215Z,9.00
2018-07-17T04:04:32.488Z,8.70
2018-07-17T04:07:00.692Z,9.03
2018-07-17T04:09:28.841Z,10.23
2018-07-17T04:11:57.340Z,9.00
2018-07-17T04:14:25.515Z,9.87
2018-07-17T04:16:54.923Z,9.50
2018-07-17T04:19:24.435Z,8.40
2018-07-17T04:21:52.721Z,9.00
2018-07-17T04:24:22.185Z,8.90
2018-07-17T04:26:50.897Z,8.87
2018-07-17T04:29:19.151Z,9.63
2018-07-17T04:31:47.553Z,9.90
2018-07-17T04:34:15.939Z,8.93
2018-07-17T04:36:44.227Z,8.27
2018-07-17T04:39:13.413Z,8.60
2018-07-17T04:41:41.915Z,8.00
2018-07-17T04:44:10.951Z,7.90
2018-07-17T04:46:39.257Z,8.97
2018-07-17T04:49:07.848Z,8.70
2018-07-17T04:51:36.012Z,8.33
2018-07-17T04:54:04.200Z,7.50
2018-07-17T04:56:32.392Z,7.77
2018-07-17T04:59:00.565Z,8.50
2018-07-17T05:01:28.977Z,8.97
2018-07-17T05:03:57.504Z,8.70
2018-07-17T05:06:26.210Z,9.83
2018-07-17T05:08:54.759Z,9.27
2018-07-17T05:11:23.051Z,9.57
2018-07-17T05:13:51.273Z,8.90
2018-07-17T05:16:19.616Z,8.77
2018-07-17T05:18:48.205Z,8.37
2018-07-17T05:21:16.407Z,9.27
2018-07-17T05:23:44.800Z,9.27
2018-07-17T05:26:13.281Z,8.83
2018-07-17T05:28:41.481Z,8.80
2018-07-17T05:31:09.688Z,8.50
2018-07-17T05:33:37.872Z,8.30
2018-07-17T05:36:06.315Z,7.67
2018-07-17T05:38:34.715Z,8.53
2018-07-17T05:41:02.894Z,9.07
2018-07-17T05:43:31.064Z,9.20
2018-07-17T05:45:59.255Z,8.67
2018-07-17T05:48:27.792Z,7.60
2018-07-17T05:50:56.029Z,8.70
2018-07-17T05:53:24.578Z,7.53
2018-07-17T05:55:53.188Z,7.60
2018-07-17T05:58:21.661Z,7.67
2018-07-17T06:00:49.870Z,7.83
2018-07-17T06:03:18.138Z,6.87
2018-07-17T06:05:46.512Z,7.67
2018-07-17T06:08:14.767Z,7.93
2018-07-17T06:10:43.077Z,7.73
2018-07-17T06:13:11.235Z,8.33
2018-07-17T06:15:39.491Z,7.57
2018-07-17T06:18:07.692Z,7.57
2018-07-17T06:20:35.844Z,8.00
2018-07-17T06:23:04.175Z,8.37
2018-07-17T06:25:32.323Z,7.13
2018-07-17T06:28:00.487Z,7.20
2018-07-17T06:30:28.687Z,7.00
2018-07-17T06:32:56.883Z,7.50
2018-07-17T06:35:25.279Z,7.37
2018-07-17T06:37:53.604Z,6.77
2018-07-17T06:40:21.776Z,7.37
2018-07-17T06:42:50.064Z,6.73
2018-07-17T06:45:18.215Z,7.00
2018-07-17T06:47:46.631Z,6.70
2018-07-17T06:50:14.987Z,7.43
2018-07-17T06:52:43.455Z,6.57
2018-07-17T06:55:11.637Z,7.10
2018-07-17T06:57:40.231Z,7.13
2018-07-17T07:00:08.719Z,6.30
2018-07-17T07:02:36.980Z,7.20
2018-07-17T07:05:05.156Z,7.10
2018-07-17T07:07:33.452Z,6.33
2018-07-17T07:10:01.663Z,6.70
2018-07-17T07:12:29.991Z,6.03
2018-07-17T07:14:58.184Z,6.53
2018-07-17T07:17:26.403Z,6.37
2018-07-17T07:19:54.632Z,6.73
2018-07-17T07:22:22.920Z,6.67
2018-07-17T07:24:51.301Z,5.93
2018-07-17T07:27:19.810Z,6.63
2018-07-17T07:29:48.193Z,6.23
2018-07-17T07:32:16.361Z,6.40
2018-07-17T07:34:44.491Z,5.80
2018-07-17T07:37:12.715Z,6.13
2018-07-17T07:39:41.254Z,6.00
2018-07-17T07:42:09.581Z,6.43
2018-07-17T07:44:37.872Z,5.97
2018-07-17T07:47:06.124Z,5.80
2018-07-17T07:49:34.657Z,5.93
2018-07-17T07:52:03.062Z,5.57
2018-07-17T07:54:31.412Z,5.27
2018-07-17T07:57:00.043Z,5.03
2018-07-17T07:59:28.913Z,5.23
2018-07-17T08:01:57.079Z,5.70
2018-07-17T08:04:25.879Z,5.90
2018-07-17T08:06:54.064Z,5.70
2018-07-17T08:09:22.344Z,4.87
2018-07-17T08:11:50.660Z,4.37
2018-07-17T08:14:18.975Z,5.30
2018-07-17T08:16:47.172Z,4.83
2018-07-17T08:19:15.456Z,4.90
2018-07-17T08:21:43.742Z,5.10
2018-07-17T08:24:12.554Z,4.83
2018-07-17T08:26:41.119Z,5.13
2018-07-17T08:29:09.305Z,5.43
2018-07-17T08:31:38.075Z,4.80
2018-07-17T08:34:06.701Z,4.17
2018-07-17T08:36:35.059Z,4.47
2018-07-17T08:39:04.305Z,3.90
2018-07-17T08:41:32.484Z,4.43
2018-07-17T08:44:00.643Z,4.00
2018-07-17T08:46:28.995Z,4.40
2018-07-17T08:48:57.236Z,4.63
2018-07-17T08:51:25.404Z,4.00
2018-07-17T08:53:53.920Z,4.50
2018-07-17T08:56:22.112Z,4.30
2018-07-17T08:58:50.563Z,4.17
2018-07-17T09:01:18.827Z,4.77
2018-07-17T09:03:47.123Z,4.93
2018-07-17T09:06:15.240Z,5.20
2018-07-17T09:08:43.748Z,4.40
2018-07-17T09:11:11.931Z,4.60
2018-07-17T09:13:40.235Z,4.53
2018-07-17T09:16:08.588Z,4.37
2018-07-17T09:18:37.206Z,4.50
2018-07-17T09:21:06.193Z,3.90
2018-07-17T09:23:34.882Z,4.50
2018-07-17T09:26:03.040Z,4.70
2018-07-17T09:28:31.224Z,4.77
2018-07-17T09:31:00.769Z,5.00
2018-07-17T09:33:30.543Z,5.40
2018-07-17T09:35:59.528Z,5.30
2018-07-17T09:38:28.223Z,5.00
2018-07-17T09:40:56.638Z,5.30
2018-07-17T09:43:24.756Z,5.43
2018-07-17T09:45:53.048Z,5.43
2018-07-17T09:48:21.220Z,6.03
2018-07-17T09:50:49.732Z,5.13
2018-07-17T09:53:18.279Z,4.30
2018-07-17T09:55:46.557Z,5.00
2018-07-17T09:58:14.839Z,4.50
2018-07-17T10:00:48.324Z,4.33
2018-07-17T10:03:16.628Z,4.80
2018-07-17T10:05:44.799Z,5.07
2018-07-17T10:08:12.983Z,4.57
2018-07-17T10:10:41.185Z,4.40
2018-07-17T10:13:09.366Z,5.07
2018-07-17T10:15:37.536Z,4.30
2018-07-17T10:18:05.823Z,4.47
2018-07-17T10:20:34.203Z,3.60
2018-07-17T10:23:02.525Z,4.20
2018-07-17T10:25:30.716Z,4.30
2018-07-17T10:27:58.977Z,4.57
2018-07-17T10:30:27.182Z,3.73
2018-07-17T10:32:55.536Z,3.40
2018-07-17T10:35:23.826Z,3.73
2018-07-17T10:37:51.980Z,3.40
2018-07-17T10:40:20.191Z,3.10
2018-07-17T10:42:48.371Z,3.50
2018-07-17T10:45:16.531Z,3.30
2018-07-17T10:47:44.812Z,3.10
2018-07-17T10:50:13.300Z,3.60
2018-07-17T10:52:41.476Z,3.17
2018-07-17T10:55:09.619Z,2.73
2018-07-17T10:57:37.820Z,3.37
2018-07-17T11:00:06.048Z,2.93
2018-07-17T11:02:34.252Z,3.43
2018-07-17T11:05:02.459Z,3.27
2018-07-17T11:07:30.659Z,3.20
2018-07-17T11:09:58.811Z,3.03
2018-07-17T11:12:27.324Z,2.90
2018-07-17T11:14:55.502Z,3.13
2018-07-17T11:17:23.816Z,2.90
2018-07-17T11:19:52.008Z,2.77
2018-07-17T11:22:20.210Z,3.57
2018-07-17T11:24:48.418Z,3.20
2018-07-17T11:27:16.651Z,3.10
2018-07-17T11:29:44.896Z,3.03
2018-07-17T11:32:13.088Z,2.70
2018-07-17T11:34:41.393Z,3.43
2018-07-17T11:37:09.626Z,3.50
2018-07-17T11:39:37.951Z,4.00
2018-07-17T11:42:06.251Z,3.87
2018-07-17T11:44:34.482Z,3.97
2018-07-17T11:47:02.685Z,3.87
2018-07-17T11:49:30.843Z,3.83
2018-07-17T11:51:59.449Z,3.50
2018-07-17T11:54:27.779Z,3.90
2018-07-17T11:56:55.972Z,3.20
2018-07-17T11:59:24.403Z,3.70
2018-07-17T12:01:52.684Z,3.10
2018-07-17T12:04:21.117Z,3.37
2018-07-17T12:06:49.284Z,3.30
2018-07-17T12:09:17.460Z,3.03
2018-07-17T12:11:45.851Z,3.27
2018-07-17T12:14:14.124Z,3.33
2018-07-17T12:16:42.386Z,3.30
2018-07-17T12:19:10.583Z,3.77
2018-07-17T12:21:38.744Z,3.17
2018-07-17T12:24:06.934Z,3.30
2018-07-17T12:26:35.167Z,3.23
2018-07-17T12:29:03.375Z,3.93
2018-07-17T12:31:31.527Z,3.70
2018-07-17T12:33:59.727Z,3.90
2018-07-17T12:36:27.903Z,4.10
2018-07-17T12:38:56.268Z,3.70
2018-07-17T12:41:24.447Z,3.00
2018-07-17T12:43:52.582Z,3.57
2018-07-17T12:46:20.748Z,3.00
2018-07-17T12:48:49.171Z,3.00
2018-07-17T12:51:17.411Z,3.60
2018-07-17T12:53:45.748Z,3.40
2018-07-17T12:56:13.929Z,3.43
2018-07-17T12:58:42.591Z,3.20
2018-07-17T13:01:10.806Z,3.33
2018-07-17T13:03:39.157Z,3.17
2018-07-17T13:06:07.562Z,3.40
2018-07-17T13:08:35.747Z,2.60
2018-07-17T13:11:04.494Z,2.97
2018-07-17T13:13:32.665Z,3.00
2018-07-17T13:16:00.947Z,2.73
2018-07-17T13:18:29.117Z,3.30
2018-07-17T13:20:57.256Z,3.10
2018-07-17T13:23:25.503Z,3.60
2018-07-17T13:25:53.856Z,3.00
2018-07-17T13:28:22.194Z,3.13
2018-07-17T13:30:50.423Z,3.20
2018-07-17T13:33:18.672Z,3.07
2018-07-17T13:35:46.917Z,3.40
2018-07-17T13:38:15.243Z,2.90
2018-07-17T13:40:43.432Z,3.23
2018-07-17T13:43:11.607Z,3.03
2018-07-17T13:45:40.176Z,3.13
2018-07-17T13:48:08.500Z,3.20
2018-07-17T13:50:37.170Z,2.90
2018-07-17T13:53:05.513Z,2.60
2018-07-17T13:55:33.732Z,3.10
2018-07-17T13:58:02.084Z,3.60
2018-07-17T14:00:30.333Z,3.50
2018-07-17T14:02:58.711Z,3.50
2018-07-17T14:05:26.916Z,3.40
2018-07-17T14:07:55.119Z,3.33
2018-07-17T14:10:23.338Z,2.97
2018-07-17T14:12:51.956Z,2.60
2018-07-17T14:15:20.418Z,2.37
2018-07-17T14:17:49.318Z,2.73
2018-07-17T14:20:17.711Z,2.40
2018-07-17T14:22:45.886Z,2.60
2018-07-17T14:25:14.315Z,3.13
2018-07-17T14:27:42.744Z,2.73
2018-07-17T14:30:10.971Z,2.60
2018-07-17T14:32:39.313Z,2.43
2018-07-17T14:35:07.723Z,2.90
2018-07-17T14:37:35.899Z,3.20
2018-07-17T14:40:04.230Z,2.60
2018-07-17T14:42:32.895Z,2.67
2018-07-17T14:45:01.185Z,3.03
2018-07-17T14:47:29.363Z,2.50
2018-07-17T14:49:57.660Z,2.40
2018-07-17T14:52:26.127Z,2.83
2018-07-17T14:54:54.355Z,2.43
2018-07-17T14:57:23.001Z,2.70
2018-07-17T14:59:51.171Z,2.80
2018-07-17T15:02:19.803Z,2.90
2018-07-17T15:04:47.936Z,2.67
2018-07-17T15:07:16.204Z,2.70
2018-07-17T15:09:44.742Z,2.70
2018-07-17T15:12:13.518Z,3.00
2018-07-17T15:14:42.626Z,2.90
2018-07-17T15:17:11.155Z,2.50
2018-07-17T15:19:39.482Z,2.60
2018-07-17T15:22:08.006Z,2.70
2018-07-17T15:24:36.619Z,2.87
2018-07-17T15:27:05.336Z,2.90
2018-07-17T15:29:33.952Z,2.50
2018-07-17T15:32:02.541Z,2.80
2018-07-17T15:34:31.132Z,3.10
2018-07-17T15:36:59.672Z,2.77
2018-07-17T15:39:28.043Z,3.33
2018-07-17T15:41:56.441Z,2.60
2018-07-17T15:44:25.013Z,3.40
2018-07-17T15:46:53.614Z,2.60
2018-07-17T15:49:22.503Z,3.13
2018-07-17T15:51:51.314Z,2.80
2018-07-17T15:54:20.155Z,3.23
2018-07-17T15:56:48.992Z,2.90
2018-07-17T15:59:18.616Z,3.07
2018-07-17T16:01:46.988Z,3.03
2018-07-17T16:04:15.516Z,3.30
2018-07-17T16:06:43.992Z,3.47
2018-07-17T16:09:12.608Z,3.07
2018-07-17T16:11:41.240Z,3.30
2018-07-17T16:14:10.051Z,3.03
2018-07-17T16:16:38.410Z,2.83
2018-07-17T16:19:07.062Z,3.23
2018-07-17T16:21:35.604Z,2.83
2018-07-17T16:24:04.329Z,3.00
2018-07-17T16:26:32.526Z,2.90
2018-07-17T16:29:00.967Z,2.80
2018-07-17T16:31:29.208Z,3.27
2018-07-17T16:33:57.392Z,2.87
2018-07-17T16:36:25.575Z,2.60
2018-07-17T16:38:54.268Z,2.70
2018-07-17T16:41:22.778Z,2.63
2018-07-17T16:43:51.216Z,2.80
2018-07-17T16:46:19.782Z,2.60
2018-07-17T16:48:48.152Z,2.80
2018-07-17T16:51:16.747Z,3.60
2018-07-17T16:53:44.943Z,3.87
2018-07-17T16:56:13.128Z,3.70
2018-07-17T16:58:41.418Z,4.37
2018-07-17T17:01:09.781Z,3.07
2018-07-17T17:03:38.260Z,2.80
2018-07-17T17:06:06.423Z,2.83
2018-07-17T17:08:34.616Z,3.57
2018-07-17T17:11:02.806Z,3.50
2018-07-17T17:13:31.067Z,3.40
2018-07-17T17:15:59.392Z,3.53
2018-07-17T17:18:27.627Z,3.30
2018-07-17T17:20:56.092Z,3.70
2018-07-17T17:23:24.944Z,3.70
2018-07-17T17:25:53.143Z,3.60
2018-07-17T17:28:21.351Z,3.80
2018-07-17T17:30:49.543Z,3.67
2018-07-17T17:33:18.111Z,3.87
2018-07-17T17:35:46.399Z,4.00
2018-07-17T17:38:14.771Z,3.70
2018-07-17T17:40:43.176Z,3.83
2018-07-17T17:43:11.439Z,4.33
2018-07-17T17:45:39.789Z,4.10
2018-07-17T17:48:08.306Z,3.97
2018-07-17T17:50:36.558Z,4.50
2018-07-17T17:53:05.120Z,3.77
2018-07-17T17:55:33.345Z,3.77
2018-07-17T17:58:01.542Z,4.00
2018-07-17T18:00:29.719Z,3.93
2018-07-17T18:02:57.963Z,4.77
2018-07-17T18:05:26.117Z,5.37
2018-07-17T18:07:54.365Z,5.40
2018-07-17T18:10:22.540Z,5.60
2018-07-17T18:12:50.795Z,5.20
2018-07-17T18:15:19.069Z,5.03
2018-07-17T18:17:47.323Z,4.63
2018-07-17T18:20:15.570Z,5.17
2018-07-17T18:22:43.792Z,5.07
2018-07-17T18:25:12.031Z,5.33
2018-07-17T18:27:40.244Z,4.53
2018-07-17T18:30:08.916Z,5.43
2018-07-17T18:32:37.169Z,4.70
2018-07-17T18:35:05.707Z,4.87
2018-07-17T18:37:33.856Z,5.17
2018-07-17T18:40:02.228Z,5.07
2018-07-17T18:42:30.699Z,4.90
2018-07-17T18:44:59.016Z,4.33
2018-07-17T18:47:27.629Z,4.40
2018-07-17T18:50:12.309Z,4.57
2018-07-17T18:52:24.678Z,4.10
2018-07-17T18:54:52.909Z,4.10
2018-07-17T18:57:21.311Z,3.73
2018-07-17T18:59:49.725Z,4.23
2018-07-17T19:02:18.338Z,3.87
2018-07-17T19:04:46.502Z,4.10
2018-07-17T19:07:15.174Z,3.83
2018-07-17T19:09:43.586Z,3.70
2018-07-17T19:12:12.076Z,3.90
2018-07-17T19:14:40.673Z,4.30
2018-07-17T19:17:09.090Z,3.90
2018-07-17T19:19:37.580Z,4.10
2018-07-17T19:22:06.526Z,3.90
2018-07-17T19:24:35.019Z,4.20
2018-07-17T19:27:03.607Z,4.20
2018-07-17T19:29:32.150Z,4.83
2018-07-17T19:32:00.638Z,4.97
2018-07-17T19:34:29.241Z,4.87
2018-07-17T19:36:58.835Z,4.43
2018-07-17T19:39:27.319Z,5.23
2018-07-17T19:41:55.572Z,4.63
2018-07-17T19:44:23.811Z,4.20
2018-07-17T19:46:52.079Z,4.20
2018-07-17T19:49:20.287Z,4.40
2018-07-17T19:51:48.549Z,4.77
2018-07-17T19:54:16.905Z,4.60
2018-07-17T19:56:45.428Z,4.00
2018-07-17T19:59:15.227Z,4.30
2018-07-17T20:01:43.443Z,4.30
2018-07-17T20:04:11.960Z,4.63
2018-07-17T20:06:40.558Z,4.40
2018-07-17T20:09:09.714Z,4.50
2018-07-17T20:11:38.434Z,4.50
2018-07-17T20:14:06.887Z,4.60
2018-07-17T20:16:35.299Z,4.20
2018-07-17T20:19:03.615Z,4.90
2018-07-17T20:21:32.046Z,5.00
2018-07-17T20:24:00.749Z,4.53
2018-07-17T20:26:29.209Z,4.80
2018-07-17T20:28:57.856Z,4.93
2018-07-17T20:31:26.122Z,4.60
2018-07-17T20:33:54.680Z,4.13
2018-07-17T20:36:22.889Z,3.67
2018-07-17T20:38:51.115Z,3.90
2018-07-17T20:41:19.419Z,3.57
2018-07-17T20:43:47.976Z,4.33
2018-07-17T20:46:16.567Z,4.00
2018-07-17T20:48:46.133Z,4.13
2018-07-17T20:51:15.491Z,3.87
2018-07-17T20:53:44.710Z,3.77
2018-07-17T20:56:12.943Z,4.00
2018-07-17T20:58:41.161Z,4.00
2018-07-17T21:01:09.650Z,4.27
2018-07-17T21:03:38.199Z,4.33
2018-07-17T21:06:06.704Z,4.40
2018-07-17T21:08:35.115Z,4.23
2018-07-17T21:11:03.340Z,4.20
2018-07-17T21:13:31.567Z,4.33
2018-07-17T21:15:59.747Z,4.40
2018-07-17T21:18:28.174Z,4.53
2018-07-17T21:20:56.924Z,4.40
2018-07-17T21:23:25.092Z,4.13
2018-07-17T21:25:53.289Z,4.67
2018-07-17T21:28:21.421Z,4.63
2018-07-17T21:30:49.687Z,4.00
2018-07-17T21:33:17.970Z,3.70
2018-07-17T21:35:46.232Z,4.10
2018-07-17T21:38:14.551Z,4.50
2018-07-17T21:40:42.809Z,4.50
2018-07-17T21:43:11.152Z,4.47
2018-07-17T21:45:39.407Z,4.43
2018-07-17T21:48:07.756Z,4.60
2018-07-17T21:50:35.932Z,3.90
2018-07-17T21:53:04.259Z,4.60
2018-07-17T21:55:32.491Z,4.63
2018-07-17T21:58:00.826Z,4.97
2018-07-17T22:00:29.210Z,3.90
2018-07-17T22:02:57.429Z,4.07
2018-07-17T22:05:25.849Z,4.70
2018-07-17T22:07:54.075Z,5.13
2018-07-17T22:10:22.515Z,4.70
2018-07-17T22:12:52.551Z,5.00
2018-07-17T22:15:20.748Z,5.70
2018-07-17T22:17:49.180Z,4.67
2018-07-17T22:20:17.512Z,4.83
2018-07-17T22:22:46.172Z,4.20
2018-07-17T22:25:14.823Z,4.20
2018-07-17T22:27:43.249Z,3.77
2018-07-17T22:30:11.412Z,3.83
2018-07-17T22:32:39.885Z,4.63
2018-07-17T22:35:08.052Z,4.30
2018-07-17T22:37:36.595Z,4.50
2018-07-17T22:40:05.014Z,4.50
2018-07-17T22:42:33.559Z,4.20
2018-07-17T22:45:01.884Z,4.37
2018-07-17T22:47:30.156Z,4.20
2018-07-17T22:49:58.457Z,4.23
2018-07-17T22:52:26.860Z,4.30
2018-07-17T22:54:55.315Z,4.30
2018-07-17T22:57:23.717Z,5.40
2018-07-17T22:59:51.984Z,5.00
2018-07-17T23:02:20.165Z,4.60
2018-07-17T23:04:48.348Z,4.60
2018-07-17T23:07:16.875Z,4.20
2018-07-17T23:09:45.175Z,4.67
2018-07-17T23:12:13.497Z,4.20
2018-07-17T23:14:41.911Z,4.47
2018-07-17T23:17:10.347Z,4.47
2018-07-17T23:19:39.044Z,4.20
2018-07-17T23:22:07.373Z,4.20
2018-07-17T23:24:35.576Z,4.50
2018-07-17T23:27:03.969Z,5.10
2018-07-17T23:29:32.123Z,4.97
2018-07-17T23:32:00.280Z,4.23
2018-07-17T23:34:28.548Z,4.03
2018-07-17T23:36:56.938Z,4.70
2018-07-17T23:39:25.113Z,4.27
2018-07-17T23:41:53.500Z,4.77
2018-07-17T23:44:22.621Z,4.60
2018-07-17T23:46:50.967Z,5.33
2018-07-17T23:49:38.320Z,4.53
2018-07-17T23:52:07.416Z,5.43
2018-07-17T23:54:35.843Z,5.60
2018-07-17T23:57:04.030Z,4.50
2018-07-17T23:59:32.332Z,4.60
